createdAt,value
2022-08-28T00:01:53.611Z,16.17
2022-08-28T00:06:46.769Z,14.48
2022-08-28T00:11:40.066Z,15.10
2022-08-28T00:16:34.227Z,15.88
2022-08-28T00:21:27.412Z,15.73
2022-08-28T00:26:39.027Z,15.27
2022-08-28T00:31:33.996Z,16.10
2022-08-28T00:36:29.845Z,16.10
2022-08-28T00:41:24.936Z,16.95
2022-08-28T00:46:23.259Z,16.08
2022-08-28T00:51:37.876Z,16.55
2022-08-28T00:56:32.115Z,14.75
2022-08-28T01:01:26.010Z,14.52
2022-08-28T01:06:21.488Z,13.48
2022-08-28T01:11:19.234Z,15.00
2022-08-28T01:16:13.806Z,14.73
2022-08-28T01:21:32.724Z,14.60
2022-08-28T01:26:27.607Z,13.52
2022-08-28T01:31:22.604Z,16.92
2022-08-28T01:36:16.121Z,15.52
2022-08-28T01:41:10.127Z,14.10
2022-08-28T01:46:07.603Z,15.02
2022-08-28T01:51:01.204Z,14.98
2022-08-28T01:55:55.892Z,17.42
2022-08-28T02:00:49.781Z,17.48
2022-08-28T02:05:44.482Z,16.33
2022-08-28T02:10:39.858Z,17.55
2022-08-28T02:15:34.594Z,15.25
2022-08-28T02:20:29.556Z,15.45
2022-08-28T02:25:23.611Z,16.98
2022-08-28T02:30:18.039Z,18.52
2022-08-28T02:35:13.112Z,17.80
2022-08-28T02:40:09.112Z,16.13
2022-08-28T02:45:03.446Z,18.52
2022-08-28T02:49:57.715Z,19.05
2022-08-28T02:54:51.964Z,17.73
2022-08-28T02:59:46.452Z,17.67
2022-08-28T03:04:39.734Z,18.60
2022-08-28T03:09:33.761Z,17.98
2022-08-28T03:14:32.105Z,18.00
2022-08-28T03:19:26.220Z,18.50
2022-08-28T03:24:19.637Z,17.60
2022-08-28T03:29:13.364Z,17.35
2022-08-28T03:34:08.374Z,18.52
2022-08-28T03:39:04.754Z,16.77
2022-08-28T03:43:59.664Z,17.02
2022-08-28T03:48:55.219Z,19.13
2022-08-28T03:53:49.618Z,16.95
2022-08-28T03:58:44.567Z,15.32
2022-08-28T04:03:37.630Z,16.63
2022-08-28T04:08:31.669Z,14.15
2022-08-28T04:13:25.234Z,16.23
2022-08-28T04:18:19.447Z,14.07
2022-08-28T04:23:13.140Z,14.77
2022-08-28T04:28:07.666Z,12.63
2022-08-28T04:33:00.980Z,11.70
2022-08-28T04:37:58.730Z,11.50
2022-08-28T04:42:52.884Z,12.10
2022-08-28T04:47:46.791Z,10.98
2022-08-28T04:52:40.436Z,10.55
2022-08-28T04:57:36.482Z,10.55
2022-08-28T05:02:30.205Z,8.82
2022-08-28T05:07:23.860Z,8.50
2022-08-28T05:12:18.422Z,8.73
2022-08-28T05:17:14.164Z,9.80
2022-08-28T05:22:08.051Z,9.05
2022-08-28T05:27:05.305Z,9.98
2022-08-28T05:31:58.859Z,10.07
2022-08-28T05:36:53.164Z,8.93
2022-08-28T05:41:47.539Z,9.10
2022-08-28T05:46:44.169Z,9.55
2022-08-28T05:51:41.784Z,9.55
2022-08-28T05:56:37.360Z,10.02
2022-08-28T06:01:34.467Z,9.73
2022-08-28T06:06:31.681Z,10.25
2022-08-28T06:11:24.604Z,11.02
2022-08-28T06:16:18.779Z,10.63
2022-08-28T06:21:12.166Z,9.00
2022-08-28T06:26:06.554Z,9.07
2022-08-28T06:31:22.841Z,7.65
2022-08-28T06:36:17.782Z,8.70
2022-08-28T06:41:11.028Z,9.63
2022-08-28T06:46:05.059Z,10.07
2022-08-28T06:50:59.936Z,9.60
2022-08-28T06:56:29.782Z,10.23
2022-08-28T07:01:31.832Z,12.02
2022-08-28T07:06:32.123Z,11.57
2022-08-28T07:11:29.584Z,11.45
2022-08-28T07:16:28.485Z,10.50
2022-08-28T07:21:22.491Z,10.77
2022-08-28T07:26:18.531Z,11.25
2022-08-28T07:31:33.357Z,10.73
2022-08-28T07:36:29.897Z,11.50
2022-08-28T07:41:26.261Z,9.93
2022-08-28T07:46:20.399Z,8.82
2022-08-28T07:51:15.125Z,6.72
2022-08-28T07:56:09.044Z,6.93
2022-08-28T08:01:03.971Z,6.70
2022-08-28T08:05:59.740Z,6.03
2022-08-28T08:11:07.571Z,5.57
2022-08-28T08:16:11.690Z,6.05
2022-08-28T08:21:07.564Z,5.82
2022-08-28T08:26:06.262Z,5.75
2022-08-28T08:31:22.626Z,6.95
2022-08-28T08:36:24.695Z,6.30
2022-08-28T08:41:48.822Z,5.85
2022-08-28T08:46:47.667Z,5.50
2022-08-28T08:51:44.338Z,5.13
2022-08-28T08:56:38.311Z,5.15
2022-08-28T09:02:00.917Z,5.45
2022-08-28T09:07:03.414Z,6.07
2022-08-28T09:12:01.014Z,4.75
2022-08-28T09:16:54.582Z,3.65
2022-08-28T09:21:50.623Z,4.38
2022-08-28T09:26:44.433Z,3.58
2022-08-28T09:31:41.606Z,2.95
2022-08-28T09:36:39.412Z,4.30
2022-08-28T09:41:51.039Z,3.05
2022-08-28T09:46:48.406Z,3.90
2022-08-28T09:51:42.456Z,3.97
2022-08-28T09:56:40.631Z,3.15
2022-08-28T10:01:45.604Z,4.30
2022-08-28T10:06:43.553Z,5.65
2022-08-28T10:11:48.216Z,6.53
2022-08-28T10:17:19.831Z,6.93
2022-08-28T10:22:52.827Z,6.82
2022-08-28T10:27:50.002Z,6.28
2022-08-28T10:33:13.875Z,6.18
2022-08-28T10:38:13.876Z,7.80
2022-08-28T10:43:34.134Z,9.30
2022-08-28T10:48:38.099Z,6.22
2022-08-28T10:53:31.251Z,8.75
2022-08-28T10:58:44.894Z,9.63
2022-08-28T11:03:47.736Z,7.15
2022-08-28T11:08:41.556Z,6.93
2022-08-28T11:13:46.709Z,6.10
2022-08-28T11:18:50.133Z,6.57
2022-08-28T11:24:02.936Z,9.48
2022-08-28T11:28:56.936Z,6.38
2022-08-28T11:33:53.079Z,5.00
2022-08-28T11:38:58.682Z,4.18
2022-08-28T11:44:32.052Z,7.05
2022-08-28T11:49:45.173Z,3.58
2022-08-28T11:55:00.162Z,3.88
2022-08-28T12:00:04.697Z,3.55
2022-08-28T12:05:00.544Z,4.17
2022-08-28T12:09:54.323Z,3.72
2022-08-28T12:14:47.274Z,3.67
2022-08-28T12:19:56.087Z,3.10
2022-08-28T12:24:57.911Z,2.15
2022-08-28T12:29:55.415Z,2.58
2022-08-28T12:34:53.465Z,2.28
2022-08-28T12:39:48.093Z,2.17
2022-08-28T12:44:42.546Z,2.90
2022-08-28T12:49:38.275Z,2.28
2022-08-28T12:54:32.416Z,2.33
2022-08-28T12:59:50.039Z,2.72
2022-08-28T13:04:51.064Z,2.50
2022-08-28T13:09:49.223Z,2.80
2022-08-28T13:14:47.095Z,2.10
2022-08-28T13:19:41.271Z,2.75
2022-08-28T13:24:40.442Z,2.83
2022-08-28T13:29:34.550Z,2.58
2022-08-28T13:34:32.714Z,2.97
2022-08-28T13:39:27.928Z,2.70
2022-08-28T13:44:34.387Z,3.40
2022-08-28T13:49:28.500Z,3.33
2022-08-28T13:54:22.009Z,3.58
2022-08-28T13:59:16.325Z,3.22
2022-08-28T14:04:10.460Z,2.95
2022-08-28T14:09:03.964Z,3.03
2022-08-28T14:13:58.131Z,2.95
2022-08-28T14:18:53.595Z,3.72
2022-08-28T14:23:47.602Z,3.10
2022-08-28T14:28:41.427Z,3.20
2022-08-28T14:33:37.014Z,3.53
2022-08-28T14:38:30.868Z,3.72
2022-08-28T14:43:25.603Z,3.05
2022-08-28T14:48:19.148Z,4.13
2022-08-28T14:53:13.147Z,2.85
2022-08-28T14:58:07.219Z,5.03
2022-08-28T15:03:01.906Z,4.43
2022-08-28T15:07:56.153Z,4.20
2022-08-28T15:12:50.606Z,3.33
2022-08-28T15:17:46.719Z,3.67
2022-08-28T15:22:41.172Z,3.08
2022-08-28T15:27:34.517Z,3.25
2022-08-28T15:32:35.354Z,2.10
2022-08-28T15:37:31.579Z,2.42
2022-08-28T15:42:26.162Z,2.30
2022-08-28T15:47:22.999Z,2.30
2022-08-28T15:52:17.752Z,2.58
2022-08-28T15:57:15.305Z,2.72
2022-08-28T16:02:10.471Z,2.33
2022-08-28T16:07:03.796Z,2.05
2022-08-28T16:11:57.860Z,2.17
2022-08-28T16:16:51.882Z,1.88
2022-08-28T16:21:47.361Z,2.05
2022-08-28T16:26:41.437Z,1.88
2022-08-28T16:31:34.833Z,2.28
2022-08-28T16:36:28.505Z,1.85
2022-08-28T16:41:23.637Z,2.15
2022-08-28T16:46:23.797Z,2.20
2022-08-28T16:51:17.400Z,1.67
2022-08-28T16:56:35.951Z,2.38
2022-08-28T17:01:30.816Z,2.50
2022-08-28T17:06:28.852Z,1.90
2022-08-28T17:11:23.444Z,1.95
2022-08-28T17:16:18.022Z,1.95
2022-08-28T17:21:29.844Z,2.22
2022-08-28T17:26:23.803Z,2.63
2022-08-28T17:31:17.388Z,2.17
2022-08-28T17:36:17.074Z,1.80
2022-08-28T17:41:26.463Z,1.60
2022-08-28T17:46:20.835Z,1.50
2022-08-28T17:51:16.349Z,1.60
2022-08-28T17:56:13.973Z,1.77
2022-08-28T18:01:08.501Z,1.75
2022-08-28T18:06:03.864Z,1.88
2022-08-28T18:10:58.107Z,1.70
2022-08-28T18:15:56.623Z,2.15
2022-08-28T18:20:51.449Z,1.92
2022-08-28T18:25:51.061Z,1.48
2022-08-28T18:30:45.874Z,1.90
2022-08-28T18:35:45.143Z,1.85
2022-08-28T18:40:41.078Z,1.98
2022-08-28T18:45:34.935Z,3.00
2022-08-28T18:50:30.482Z,2.10
2022-08-28T18:55:25.975Z,1.67
2022-08-28T19:00:20.757Z,2.40
2022-08-28T19:05:15.002Z,1.92
2022-08-28T19:10:28.069Z,2.05
2022-08-28T19:15:22.488Z,2.40
2022-08-28T19:20:24.060Z,2.83
2022-08-28T19:25:28.505Z,1.98
2022-08-28T19:30:25.583Z,2.17
2022-08-28T19:35:20.706Z,2.33
2022-08-28T19:40:23.925Z,1.90
2022-08-28T19:45:19.248Z,2.55
2022-08-28T19:50:15.259Z,2.65
2022-08-28T19:55:14.734Z,2.40
2022-08-28T20:00:14.269Z,2.70
2022-08-28T20:05:11.346Z,3.22
2022-08-28T20:10:07.445Z,2.90
2022-08-28T20:15:03.603Z,2.90
2022-08-28T20:20:18.772Z,3.25
2022-08-28T20:25:13.395Z,2.80
2022-08-28T20:30:10.797Z,2.85
2022-08-28T20:35:08.726Z,2.90
2022-08-28T20:40:07.826Z,2.85
2022-08-28T20:45:04.980Z,3.20
2022-08-28T20:49:59.573Z,3.47
2022-08-28T20:54:53.561Z,3.00
2022-08-28T20:59:48.108Z,2.85
2022-08-28T21:04:42.532Z,3.33
2022-08-28T21:10:06.340Z,3.30
2022-08-28T21:14:53.235Z,3.03
2022-08-28T21:19:47.637Z,3.10
2022-08-28T21:24:42.629Z,3.08
2022-08-28T21:29:36.917Z,3.47
2022-08-28T21:34:30.037Z,3.83
2022-08-28T21:39:24.269Z,3.75
2022-08-28T21:44:18.392Z,4.10
2022-08-28T21:49:11.813Z,3.60
2022-08-28T21:54:06.041Z,3.15
2022-08-28T21:58:59.860Z,2.40
2022-08-28T22:03:53.238Z,3.22
2022-08-28T22:08:47.227Z,2.70
2022-08-28T22:13:41.493Z,2.72
2022-08-28T22:18:37.747Z,2.90
2022-08-28T22:23:35.607Z,3.80
2022-08-28T22:28:30.109Z,3.08
2022-08-28T22:33:24.648Z,2.75
2022-08-28T22:38:18.092Z,3.33
2022-08-28T22:43:13.555Z,3.13
2022-08-28T22:48:08.827Z,2.72
2022-08-28T22:53:05.622Z,3.20
2022-08-28T22:58:00.122Z,2.83
2022-08-28T23:02:54.900Z,3.25
2022-08-28T23:07:47.739Z,3.88
2022-08-28T23:12:41.771Z,4.20
2022-08-28T23:17:35.552Z,4.78
2022-08-28T23:22:31.696Z,4.28
2022-08-28T23:27:36.165Z,3.95
2022-08-28T23:32:30.905Z,4.30
2022-08-28T23:37:27.289Z,5.30
2022-08-28T23:42:21.491Z,4.90
2022-08-28T23:47:15.828Z,4.38
2022-08-28T23:52:09.843Z,5.50
2022-08-28T23:57:03.827Z,4.68
